Thunder radar more information blitzortung!


Radar de pluja more information rain snow radar


Visita la nostra xarxa de llocs de meteo:

Template documentation
and downloads

And another site



No particular awareness of the weather is required.    There are no Weather-warnings

Pagina Historial Weather Underground text

Diari Resum January 5, 2018 Unitats:  Imperial    Mètric   Tant
« Previous Dia
SegĂźent Dia »
Diari Setmana Mensual Anual Personalitzada
  Maxima: Minima: Media:
Temperatura: TemperatureC °F 5.2 °F 13.7 °F
Punt de rosada: DewpointC °F -1.5 °F 3 °F
Humitat: Humidity % 41 % 49 %
Wind Speed: WindSpeedKMH mph 0.0 mph 7.1 mph
RĂ fegues de vent: WindSpeedGustKMH mph - -
Vent:- - WSW
Pression baro: PressurehPa in 1003.9 in -
Precipitacions: 0.0 in    
Historical Graphs
 
 
Dades de taula per January 5, 2018
Temps Temperatura Punt de rosada Pression baro Vent Wind Speed RĂ fegues de vent Humitat Rainfall Rate (Hourly)
TemperatureC °F DewpointC °F PressurehPa in Calm     Humidity % HourlyPrecipMM in
00:00 14.3 °F 4.3 °F 1017.8 in NW 7.4 mph 7.4 mph 51 % 0.0 in
00:10 11.3 °F 3.1 °F 1012.8 in WSW 4.8 mph 6.4 mph 57 % 0.0 in
00:20 11.3 °F 3.1 °F 1011.7 in WSW 4.8 mph 8.0 mph 57 % 0.0 in
00:30 11.2 °F 3.0 °F 1011.7 in WSW 4.8 mph 6.4 mph 57 % 0.0 in
00:40 11.3 °F 3.1 °F 1012.8 in WSW 4.8 mph 6.4 mph 57 % 0.0 in
00:50 10.9 °F 2.7 °F 1012.8 in WSW 3.2 mph 4.8 mph 57 % 0.0 in
01:00 10.6 °F 2.4 °F 1012.8 in WSW 3.2 mph 4.8 mph 57 % 0.0 in
01:10 10.6 °F 2.4 °F 1012.8 in WSW 4.8 mph 6.4 mph 57 % 0.0 in
01:20 10.5 °F 2.6 °F 1012.8 in West 3.2 mph 4.8 mph 58 % 0.0 in
01:30 10.6 °F 2.7 °F 1012.8 in West 4.8 mph 4.8 mph 58 % 0.0 in
01:40 10.8 °F 2.8 °F 1012.8 in West 3.2 mph 4.8 mph 58 % 0.0 in
01:50 11.0 °F 3.1 °F 1012.8 in WSW 3.2 mph 4.8 mph 58 % 0.0 in
02:00 11.1 °F 3.2 °F 1012.8 in WSW 4.8 mph 4.8 mph 58 % 0.0 in
02:10 11.1 °F 3.2 °F 1012.8 in WSW 4.8 mph 6.4 mph 58 % 0.0 in
02:20 10.9 °F 2.9 °F 1012.8 in WSW 3.2 mph 6.4 mph 58 % 0.0 in
02:30 10.6 °F 2.7 °F 1012.8 in WSW 1.6 mph 6.4 mph 58 % 0.0 in
03:00 11.0 °F 3.3 °F 1013.8 in WSW 3.2 mph 4.8 mph 59 % 0.0 in
03:10 11.1 °F 3.4 °F 1012.8 in WSW 1.6 mph 6.4 mph 59 % 0.0 in
03:20 11.3 °F 3.6 °F 1012.8 in WSW 3.2 mph 4.8 mph 59 % 0.0 in
03:30 11.7 °F 3.9 °F 1012.8 in West 3.2 mph 4.8 mph 59 % 0.0 in
03:40 12.0 °F 4.2 °F 1013.8 in West 4.8 mph 4.8 mph 59 % 0.0 in
03:50 12.4 °F 4.6 °F 1012.8 in West 1.6 mph 4.8 mph 59 % 0.0 in
04:00 12.7 °F 4.7 °F 1012.8 in WSW 4.8 mph 9.7 mph 58 % 0.0 in
10:02 13.0 °F 4.7 °F 1012.8 in West 9.3 mph 9.3 mph 57 % 0.0 in
10:05 13.2 °F 4.8 °F 1012.8 in WSW 5.6 mph 5.6 mph 57 % 0.0 in
10:10 13.5 °F 5.2 °F 1013.8 in West 7.4 mph 7.4 mph 57 % 0.0 in
10:11 13.6 °F 5.2 °F 1013.8 in WNW 5.6 mph 5.6 mph 57 % 0.0 in
10:16 13.8 °F 5.4 °F 1013.8 in West 5.6 mph 5.6 mph 57 % 0.0 in
10:17 13.8 °F 5.4 °F 1013.8 in SW 7.9 mph 7.9 mph 57 % 0.0 in
10:22 14.1 °F 5.4 °F 1012.8 in WNW 5.6 mph 5.6 mph 56 % 0.0 in
10:27 14.2 °F 5.6 °F 1012.8 in WSW 9.3 mph 9.3 mph 56 % 0.0 in
10:32 14.3 °F 5.6 °F 1012.8 in SW 7.4 mph 7.4 mph 56 % 0.0 in
10:35 14.3 °F 5.6 °F 1012.8 in West 15.1 mph 15.1 mph 56 % 0.0 in
10:41 14.4 °F 5.4 °F 1011.7 in West 9.5 mph 9.5 mph 55 % 0.0 in
10:42 14.4 °F 5.4 °F 1011.7 in West 9.3 mph 9.7 mph 55 % 0.0 in
10:47 14.7 °F 5.7 °F 1011.7 in West 9.5 mph 9.5 mph 55 % 0.0 in
10:48 14.6 °F 5.7 °F 1011.7 in West 13.0 mph 13.0 mph 55 % 0.0 in
10:55 14.8 °F 5.6 °F 1011.7 in WSW 18.5 mph 18.5 mph 54 % 0.0 in
10:59 14.9 °F 5.7 °F 1011.7 in West 9.3 mph 9.3 mph 54 % 0.0 in
11:03 15.0 °F 5.8 °F 1011.7 in West 13.0 mph 13.0 mph 54 % 0.0 in
11:08 15.2 °F 5.7 °F 1011.7 in WSW 7.4 mph 7.4 mph 53 % 0.0 in
11:10 15.2 °F 5.7 °F 1011.7 in SW 21.2 mph 21.2 mph 53 % 0.0 in
11:15 15.4 °F 5.9 °F 1011.7 in NW 9.3 mph 9.3 mph 53 % 0.0 in
11:17 15.4 °F 5.9 °F 1011.7 in ENE 12.6 mph 12.6 mph 53 % 0.0 in
11:22 15.6 °F 6.1 °F 1011.7 in WSW 5.6 mph 5.6 mph 53 % 0.0 in
11:23 15.6 °F 6.1 °F 1011.7 in SW 8.7 mph 8.7 mph 53 % 0.0 in
11:28 15.6 °F 5.8 °F 1011.7 in WSW 9.3 mph 9.3 mph 52 % 0.0 in
11:33 15.6 °F 5.8 °F 1011.7 in WNW 9.3 mph 9.3 mph 52 % 0.0 in
11:35 15.7 °F 5.9 °F 1011.7 in West 14.8 mph 14.8 mph 52 % 0.0 in
11:40 15.7 °F 5.9 °F 1011.7 in West 14.8 mph 14.8 mph 52 % 0.0 in
11:41 15.7 °F 5.9 °F 1011.7 in WSW 11.1 mph 11.1 mph 52 % 0.0 in
11:47 15.8 °F 5.7 °F 1011.7 in WSW 13.0 mph 13.0 mph 51 % 0.0 in
11:50 15.9 °F 5.8 °F 1011.7 in WSW 9.7 mph 9.7 mph 51 % 0.0 in
11:55 15.9 °F 5.8 °F 1011.7 in SW 13.0 mph 13.0 mph 51 % 0.0 in
11:58 16.0 °F 5.8 °F 1011.7 in SW 9.5 mph 9.5 mph 51 % 0.0 in
12:03 15.9 °F 5.8 °F 1011.7 in WNW 14.8 mph 14.8 mph 51 % 0.0 in
12:04 15.9 °F 5.8 °F 1011.7 in West 11.1 mph 11.1 mph 51 % 0.0 in
12:09 15.9 °F 5.8 °F 1010.7 in West 13.0 mph 13.0 mph 51 % 0.0 in
12:12 16.0 °F 5.8 °F 1010.7 in East 5.6 mph 6.1 mph 51 % 0.0 in
12:16 16.0 °F 5.8 °F 1010.7 in SW 14.8 mph 14.8 mph 51 % 0.0 in
12:18 16.0 °F 5.8 °F 1010.7 in West 11.9 mph 11.9 mph 51 % 0.0 in
12:19 16.1 °F 5.9 °F 1010.7 in WSW 9.3 mph 9.3 mph 51 % 0.0 in
12:24 16.1 °F 5.7 °F 1010.0 in WSW 13.0 mph 13.0 mph 50 % 0.0 in
12:29 16.3 °F 5.8 °F 1010.0 in West 16.7 mph 16.7 mph 50 % 0.0 in
12:34 16.4 °F 5.9 °F 1010.0 in WNW 16.7 mph 16.7 mph 50 % 0.0 in
12:36 16.4 °F 5.9 °F 1010.0 in WNW 14.8 mph 14.8 mph 50 % 0.0 in
12:38 16.6 °F 6.1 °F 1010.0 in WNW 19.5 mph 19.5 mph 50 % 0.0 in
12:43 16.4 °F 5.7 °F 1010.0 in WSW 22.2 mph 22.2 mph 49 % 0.0 in
12:48 16.5 °F 5.7 °F 1010.0 in WNW 11.1 mph 11.1 mph 49 % 0.0 in
12:49 16.4 °F 5.7 °F 1010.0 in NW 16.7 mph 16.7 mph 49 % 0.0 in
12:54 16.4 °F 5.3 °F 1010.0 in WNW 16.7 mph 16.7 mph 48 % 0.0 in
12:55 16.5 °F 5.7 °F 1010.0 in WSW 14.8 mph 14.8 mph 49 % 0.0 in
13:00 16.6 °F 5.6 °F 1010.0 in WSW 9.7 mph 9.7 mph 48 % 0.0 in
13:01 16.6 °F 5.6 °F 1010.0 in SW 13.0 mph 13.0 mph 48 % 0.0 in
13:05 16.7 °F 5.6 °F 1010.0 in WNW 9.7 mph 9.7 mph 48 % 0.0 in
13:07 16.8 °F 5.7 °F 1010.0 in WNW 9.3 mph 9.3 mph 48 % 0.0 in
13:12 17.0 °F 5.6 °F 1010.0 in SW 14.8 mph 14.8 mph 47 % 0.0 in
13:17 17.0 °F 5.6 °F 1010.0 in WSW 16.1 mph 16.1 mph 47 % 0.0 in
13:18 16.9 °F 5.8 °F 1010.0 in NW 16.7 mph 16.7 mph 48 % 0.0 in
13:20 16.9 °F 5.8 °F 1010.0 in West 16.7 mph 16.7 mph 48 % 0.0 in
13:25 17.0 °F 5.6 °F 1009.0 in SSW 13.0 mph 13.0 mph 47 % 0.0 in
13:28 17.0 °F 5.6 °F 1009.0 in WSW 9.3 mph 9.3 mph 47 % 0.0 in
13:33 17.4 °F 5.9 °F 1009.0 in SW 11.1 mph 11.1 mph 47 % 0.0 in
13:34 17.4 °F 5.9 °F 1009.0 in WNW 9.3 mph 9.3 mph 47 % 0.0 in
13:38 17.4 °F 5.7 °F 1008.0 in SW 13.0 mph 13.0 mph 46 % 0.0 in
13:40 17.3 °F 5.6 °F 1008.0 in West 14.8 mph 14.8 mph 46 % 0.0 in
13:43 17.3 °F 5.6 °F 1008.0 in SW 11.1 mph 11.1 mph 46 % 0.0 in
13:48 17.3 °F 5.6 °F 1008.0 in WNW 14.8 mph 14.8 mph 46 % 0.0 in
13:49 17.4 °F 5.7 °F 1008.0 in WNW 7.4 mph 7.4 mph 46 % 0.0 in
13:50 17.3 °F 5.6 °F 1008.0 in NW 7.9 mph 8.7 mph 46 % 0.0 in
13:54 17.2 °F 5.2 °F 1009.0 in SSW 14.8 mph 14.8 mph 45 % 0.0 in
13:59 17.3 °F 5.6 °F 1009.0 in WSW 7.4 mph 7.4 mph 46 % 0.0 in
14:03 17.6 °F 5.8 °F 1009.0 in WNW 5.6 mph 5.6 mph 46 % 0.0 in
14:05 17.6 °F 5.8 °F 1009.0 in WSW 4.8 mph 14.5 mph 46 % 0.0 in
14:10 17.6 °F 5.5 °F 1008.0 in West 11.4 mph 11.4 mph 45 % 0.0 in
14:11 17.6 °F 5.8 °F 1008.0 in WNW 13.0 mph 13.0 mph 46 % 0.0 in
14:16 17.6 °F 5.5 °F 1008.0 in SSW 9.3 mph 9.3 mph 45 % 0.0 in
14:21 17.5 °F 5.4 °F 1008.0 in West 9.3 mph 9.3 mph 45 % 0.0 in
14:23 17.6 °F 5.5 °F 1008.0 in South 13.0 mph 13.0 mph 45 % 0.0 in
14:28 17.5 °F 5.4 °F 1008.0 in West 9.3 mph 9.3 mph 45 % 0.0 in
14:32 17.5 °F 5.1 °F 1008.0 in WNW 7.4 mph 8.7 mph 44 % 0.0 in
14:37 17.6 °F 5.2 °F 1008.0 in WSW 11.1 mph 11.1 mph 44 % 0.0 in
14:38 17.6 °F 5.2 °F 1008.0 in West 10.0 mph 10.0 mph 44 % 0.0 in
14:43 17.6 °F 5.2 °F 1008.0 in WSW 16.7 mph 16.7 mph 44 % 0.0 in
14:44 17.6 °F 5.2 °F 1008.0 in West 16.7 mph 16.7 mph 44 % 0.0 in
14:49 17.4 °F 5.0 °F 1008.0 in WNW 16.7 mph 16.7 mph 44 % 0.0 in
14:51 17.4 °F 4.7 °F 1008.0 in WNW 20.4 mph 20.4 mph 43 % 0.0 in
14:56 17.4 °F 5.0 °F 1008.0 in West 13.0 mph 13.0 mph 44 % 0.0 in
14:59 17.6 °F 5.2 °F 1008.0 in West 13.0 mph 13.0 mph 44 % 0.0 in
15:03 17.5 °F 5.1 °F 1008.0 in WSW 9.3 mph 9.3 mph 44 % 0.0 in
15:08 17.4 °F 4.7 °F 1008.0 in West 14.8 mph 14.8 mph 43 % 0.0 in
15:13 17.5 °F 4.8 °F 1008.0 in WSW 11.1 mph 11.1 mph 43 % 0.0 in
15:14 17.5 °F 4.8 °F 1008.0 in WSW 13.0 mph 13.0 mph 43 % 0.0 in
15:19 17.5 °F 4.8 °F 1008.0 in WSW 16.7 mph 16.7 mph 43 % 0.0 in
15:24 17.5 °F 4.8 °F 1008.0 in WSW 9.3 mph 9.3 mph 43 % 0.0 in
15:26 17.5 °F 4.8 °F 1008.0 in WNW 9.3 mph 9.3 mph 43 % 0.0 in
15:31 17.6 °F 4.9 °F 1008.0 in WSW 7.4 mph 7.4 mph 43 % 0.0 in
15:33 17.6 °F 4.9 °F 1008.0 in West 11.1 mph 11.1 mph 43 % 0.0 in
15:38 17.6 °F 4.9 °F 1008.0 in SSW 7.4 mph 7.4 mph 43 % 0.0 in
15:40 17.7 °F 4.9 °F 1008.0 in West 13.0 mph 13.0 mph 43 % 0.0 in
15:43 17.6 °F 4.9 °F 1008.0 in NW 13.0 mph 13.0 mph 43 % 0.0 in
15:48 17.6 °F 4.5 °F 1008.0 in SW 5.6 mph 6.4 mph 42 % 0.0 in
15:49 17.7 °F 4.9 °F 1008.0 in WSW 7.9 mph 7.9 mph 43 % 0.0 in
15:54 17.8 °F 4.7 °F 1007.0 in West 9.3 mph 9.3 mph 42 % 0.0 in
15:59 17.6 °F 4.5 °F 1007.0 in WSW 14.8 mph 14.8 mph 42 % 0.0 in
16:00 17.6 °F 4.5 °F 1007.0 in WSW 14.8 mph 14.8 mph 42 % 0.0 in
16:05 17.3 °F 3.9 °F 1007.0 in WSW 13.0 mph 13.0 mph 41 % 0.0 in
16:10 17.4 °F 4.3 °F 1007.0 in WSW 11.4 mph 11.4 mph 42 % 0.0 in
16:15 17.4 °F 4.3 °F 1007.0 in SW 9.3 mph 9.3 mph 42 % 0.0 in
16:17 17.5 °F 4.4 °F 1007.0 in WSW 4.2 mph 4.2 mph 42 % 0.0 in
16:18 17.5 °F 4.4 °F 1007.0 in WSW 12.6 mph 12.6 mph 42 % 0.0 in
16:23 17.3 °F 4.3 °F 1008.0 in West 5.6 mph 5.6 mph 42 % 0.0 in
16:28 17.4 °F 4.3 °F 1008.0 in SW 7.4 mph 7.4 mph 42 % 0.0 in
16:33 17.3 °F 4.3 °F 1008.0 in WSW 9.3 mph 9.3 mph 42 % 0.0 in
16:35 17.2 °F 4.2 °F 1008.0 in WSW 9.3 mph 9.5 mph 42 % 0.0 in
16:40 17.0 °F 4.0 °F 1008.0 in WNW 9.3 mph 9.3 mph 42 % 0.0 in
16:43 17.0 °F 4.0 °F 1008.0 in West 7.4 mph 7.4 mph 42 % 0.0 in
16:48 16.9 °F 3.9 °F 1008.0 in WSW 9.3 mph 9.3 mph 42 % 0.0 in
16:53 16.8 °F 3.8 °F 1008.0 in WSW 13.0 mph 13.0 mph 42 % 0.0 in
16:58 16.7 °F 3.7 °F 1008.0 in WSW 5.6 mph 5.6 mph 42 % 0.0 in
17:03 16.5 °F 3.6 °F 1008.0 in WNW 9.3 mph 9.3 mph 42 % 0.0 in
17:05 16.4 °F 3.4 °F 1008.0 in SW 9.3 mph 9.3 mph 42 % 0.0 in
17:10 16.3 °F 3.7 °F 1007.0 in WNW 7.4 mph 7.4 mph 43 % 0.0 in
17:13 16.2 °F 3.3 °F 1007.0 in WSW 9.3 mph 9.3 mph 42 % 0.0 in
17:18 16.1 °F 3.2 °F 1007.0 in WSW 7.4 mph 7.4 mph 42 % 0.0 in
17:23 15.8 °F 2.9 °F 1007.0 in SW 7.9 mph 7.9 mph 42 % 0.0 in
17:28 15.6 °F 2.7 °F 1007.0 in SW 11.1 mph 11.1 mph 42 % 0.0 in
17:34 15.3 °F 2.4 °F 1007.0 in West 7.4 mph 7.4 mph 42 % 0.0 in
17:37 15.3 °F 2.4 °F 1007.0 in WSW 5.6 mph 5.6 mph 42 % 0.0 in
17:42 15.1 °F 2.3 °F 1007.0 in SSW 7.4 mph 7.4 mph 42 % 0.0 in
17:44 15.1 °F 2.3 °F 1007.0 in West 9.0 mph 9.0 mph 42 % 0.0 in
17:49 14.9 °F 2.4 °F 1007.0 in WSW 7.4 mph 7.4 mph 43 % 0.0 in
17:51 14.8 °F 2.3 °F 1008.0 in WSW 9.3 mph 9.3 mph 43 % 0.0 in
17:53 14.8 °F 2.3 °F 1008.0 in West 9.3 mph 9.3 mph 43 % 0.0 in
17:58 14.7 °F 2.2 °F 1008.0 in WSW 7.4 mph 7.4 mph 43 % 0.0 in
17:59 14.7 °F 2.2 °F 1008.0 in WSW 10.0 mph 10.0 mph 43 % 0.0 in
18:04 14.5 °F 2.1 °F 1008.0 in WSW 5.6 mph 5.6 mph 43 % 0.0 in
18:07 14.3 °F 1.9 °F 1007.0 in SW 9.3 mph 9.3 mph 43 % 0.0 in
18:12 14.3 °F 1.9 °F 1007.0 in West 9.3 mph 9.3 mph 43 % 0.0 in
18:13 14.3 °F 1.9 °F 1007.0 in WSW 7.4 mph 7.4 mph 43 % 0.0 in
18:18 14.2 °F 1.8 °F 1007.0 in WSW 7.6 mph 7.6 mph 43 % 0.0 in
18:23 14.1 °F 1.7 °F 1007.0 in WSW 7.4 mph 7.4 mph 43 % 0.0 in
18:26 14.1 °F 1.7 °F 1007.0 in West 7.4 mph 7.4 mph 43 % 0.0 in
18:31 14.0 °F 1.9 °F 1007.0 in West 7.4 mph 7.4 mph 44 % 0.0 in
18:33 14.0 °F 1.9 °F 1007.0 in West 6.9 mph 6.9 mph 44 % 0.0 in
18:36 14.0 °F 1.9 °F 1008.0 in WSW 7.4 mph 7.4 mph 44 % 0.0 in
18:40 14.0 °F 1.9 °F 1008.0 in WSW 5.6 mph 5.6 mph 44 % 0.0 in
18:43 14.0 °F 1.9 °F 1008.0 in West 5.6 mph 5.6 mph 44 % 0.0 in
18:45 14.0 °F 1.9 °F 1008.0 in West 3.7 mph 3.7 mph 44 % 0.0 in
18:50 13.9 °F 1.8 °F 1008.0 in West 3.9 mph 3.9 mph 44 % 0.0 in
18:55 13.8 °F 1.7 °F 1008.0 in SW 3.7 mph 3.7 mph 44 % 0.0 in
19:00 13.7 °F 1.7 °F 1008.0 in ESE 1.9 mph   44 % 0.0 in
19:05 13.5 °F 1.4 °F 1008.0 in ESE 2.6 mph 2.6 mph 44 % 0.0 in
19:11 13.4 °F 1.4 °F 1008.0 in ESE 4.7 mph 4.7 mph 44 % 0.0 in
19:12 13.3 °F 1.3 °F 1008.0 in ESE 3.7 mph 3.7 mph 44 % 0.0 in
19:13 13.3 °F 1.3 °F 1008.0 in ESE 3.7 mph 3.7 mph 44 % 0.0 in
19:18 13.1 °F 1.1 °F 1008.0 in Calm     44 % 0.0 in
19:23 12.9 °F 0.9 °F 1008.0 in Calm     44 % 0.0 in
19:25 12.8 °F 0.8 °F 1008.0 in SW 2.3 mph 2.3 mph 44 % 0.0 in
19:30 12.7 °F 0.7 °F 1008.0 in SW 2.3 mph 2.3 mph 44 % 0.0 in
19:31 12.7 °F 0.7 °F 1008.0 in SW 3.7 mph 3.7 mph 44 % 0.0 in
19:33 12.7 °F 1.1 °F 1008.0 in Calm     45 % 0.0 in
19:38 12.6 °F 0.9 °F 1008.0 in WSW 3.7 mph 3.7 mph 45 % 0.0 in
19:40 7.2 °F -1.0 °F 1006.0 in ENE 1.6 mph 3.2 mph 56 % 0.0 in
19:43 12.6 °F 0.9 °F 1008.0 in WSW 3.9 mph 3.9 mph 45 % 0.0 in
19:48 12.7 °F 1.1 °F 1008.0 in West 3.7 mph 3.7 mph 45 % 0.0 in
19:52 12.6 °F 0.9 °F 1008.0 in NW 3.7 mph 3.7 mph 45 % 0.0 in
19:55 12.6 °F 0.9 °F 1008.0 in West 3.7 mph 3.7 mph 45 % 0.0 in
20:00 12.6 °F 0.9 °F 1008.0 in SE 3.7 mph   45 % 0.0 in
20:01 12.6 °F 0.9 °F 1008.0 in South 1.9 mph   45 % 0.0 in
20:06 12.4 °F 1.1 °F 1008.0 in South 1.9 mph   46 % 0.0 in
20:07 12.3 °F 1.0 °F 1008.0 in South 1.9 mph 1.9 mph 46 % 0.0 in
20:11 12.1 °F 0.8 °F 1008.0 in South 1.9 mph 1.9 mph 46 % 0.0 in
20:16 12.0 °F 0.7 °F 1008.0 in SSW 1.9 mph 1.9 mph 46 % 0.0 in
20:18 11.9 °F 0.6 °F 1008.0 in SSW 1.9 mph 1.9 mph 46 % 0.0 in
20:23 11.9 °F 0.6 °F 1008.0 in Calm     46 % 0.0 in
20:28 11.7 °F 0.4 °F 1008.0 in SW 3.7 mph 3.7 mph 46 % 0.0 in
20:30 6.6 °F -1.1 °F 1006.0 in SE 1.6 mph 3.2 mph 58 % 0.0 in
20:31 11.5 °F 0.3 °F 1008.0 in WSW 3.7 mph 3.7 mph 46 % 0.0 in
20:34 11.5 °F 0.3 °F 1008.0 in WSW 3.7 mph 3.7 mph 46 % 0.0 in
20:39 11.6 °F 0.3 °F 1008.0 in WSW 3.7 mph 3.7 mph 46 % 0.0 in
20:45 11.6 °F 0.7 °F 1008.0 in WSW 1.6 mph 3.2 mph 47 % 0.0 in
20:46 11.5 °F 0.6 °F 1008.0 in SW 3.7 mph 3.7 mph 47 % 0.0 in
20:50 6.4 °F -1.3 °F 1006.0 in SW 1.6 mph 3.2 mph 58 % 0.0 in
20:51 11.3 °F 0.4 °F 1008.0 in SW 2.6 mph   47 % 0.0 in
20:56 11.1 °F 0.2 °F 1008.0 in SW 1.9 mph 1.9 mph 47 % 0.0 in
21:00 6.4 °F -1.1 °F 1006.0 in WSW 1.6 mph 3.2 mph 59 % 0.0 in
21:01 11.0 °F 0.1 °F 1008.0 in SW 2.3 mph   47 % 0.0 in
21:07 11.1 °F 0.5 °F 1008.0 in SW 1.9 mph 2.3 mph 48 % 0.0 in
21:08 11.0 °F 0.4 °F 1008.0 in SW 1.9 mph 1.9 mph 48 % 0.0 in
21:13 10.9 °F 0.3 °F 1008.0 in SW 3.5 mph 3.5 mph 48 % 0.0 in
21:16 10.8 °F 0.2 °F 1008.0 in SW 3.7 mph 3.7 mph 48 % 0.0 in
21:21 10.7 °F 0.1 °F 1008.0 in WSW 1.9 mph   48 % 0.0 in
21:22 10.7 °F 0.1 °F 1008.0 in WSW 1.9 mph   48 % 0.0 in
21:27 10.7 °F 0.1 °F 1008.0 in WSW 1.9 mph 1.9 mph 48 % 0.0 in
21:30 6.3 °F -0.9 °F 1006.0 in Calm   1.6 mph 60 % 0.0 in
21:32 10.7 °F 0.4 °F 1008.0 in Calm     49 % 0.0 in
21:35 10.7 °F 0.4 °F 1008.0 in Calm     49 % 0.0 in
21:38 10.7 °F 0.4 °F 1007.0 in West 2.6 mph   49 % 0.0 in
21:40 6.1 °F -1.1 °F 1006.0 in Calm     60 % 0.0 in
21:46 10.8 °F 0.5 °F 1007.0 in West 3.9 mph 3.9 mph 49 % 0.0 in
21:49 10.9 °F 0.6 °F 1007.0 in WSW 5.6 mph 5.6 mph 49 % 0.0 in
21:50 6.1 °F -0.9 °F 1005.0 in Calm     61 % 0.0 in
21:52 11.0 °F 0.7 °F 1007.0 in WNW 5.0 mph 5.0 mph 49 % 0.0 in
21:57 11.0 °F 0.7 °F 1007.0 in SSW 3.7 mph   49 % 0.0 in
21:58 11.0 °F 0.7 °F 1007.0 in SSW 2.3 mph   49 % 0.0 in
21:59 10.9 °F 0.6 °F 1007.0 in SSW 2.6 mph 2.6 mph 49 % 0.0 in
22:03 10.7 °F 0.4 °F 1007.0 in SW 4.7 mph 4.7 mph 49 % 0.0 in
22:08 10.4 °F 0.1 °F 1007.0 in South 5.6 mph 5.6 mph 49 % 0.0 in
22:10 5.8 °F -1.2 °F 1005.0 in East 1.6 mph 1.6 mph 61 % 0.0 in
22:12 10.4 °F 0.4 °F 1007.0 in WSW 5.6 mph 5.6 mph 50 % 0.0 in
22:13 10.4 °F 0.4 °F 1007.0 in WSW 3.9 mph 3.9 mph 50 % 0.0 in
22:18 10.3 °F 0.3 °F 1007.0 in SW 4.7 mph 4.7 mph 50 % 0.0 in
22:23 10.2 °F 0.2 °F 1007.0 in SW 7.4 mph 7.4 mph 50 % 0.0 in
22:25 10.2 °F 0.2 °F 1007.0 in WSW 7.4 mph 7.4 mph 50 % 0.0 in
22:30 10.3 °F 0.3 °F 1007.0 in West 5.6 mph 5.6 mph 50 % 0.0 in
22:31 10.3 °F 0.3 °F 1007.0 in WSW 5.6 mph 5.6 mph 50 % 0.0 in
22:36 10.4 °F 0.4 °F 1007.0 in SW 3.7 mph 3.7 mph 50 % 0.0 in
22:40 5.2 °F -1.5 °F 1003.9 in SW 1.6 mph 3.2 mph 62 % 0.0 in
22:41 10.4 °F 0.4 °F 1007.0 in WNW 3.7 mph 3.7 mph 50 % 0.0 in
22:44 10.3 °F 0.3 °F 1007.0 in WNW 2.3 mph 2.6 mph 50 % 0.0 in
22:49 10.4 °F 0.7 °F 1007.0 in West 3.7 mph 3.7 mph 51 % 0.0 in
22:54 10.4 °F 0.7 °F 1008.0 in West 3.7 mph 3.7 mph 51 % 0.0 in
22:56 10.4 °F 0.7 °F 1008.0 in WSW 3.9 mph 3.9 mph 51 % 0.0 in
22:59 10.4 °F 0.7 °F 1008.0 in SW 3.7 mph 3.7 mph 51 % 0.0 in
23:03 10.3 °F 0.6 °F 1008.0 in SW 1.9 mph 1.9 mph 51 % 0.0 in
23:06 10.2 °F 0.5 °F 1007.0 in SW 1.4 mph   51 % 0.0 in
23:10 10.0 °F 0.3 °F 1007.0 in Calm     51 % 0.0 in
23:15 9.9 °F 0.2 °F 1007.0 in Calm     51 % 0.0 in
23:16 9.9 °F 0.2 °F 1007.0 in Calm     51 % 0.0 in
23:19 9.7 °F 0.1 °F 1007.0 in Calm     51 % 0.0 in
23:20 5.2 °F -1.1 °F 1003.9 in WNW 1.6 mph 3.2 mph 64 % 0.0 in
23:23 9.6 °F -0.1 °F 1007.0 in ENE 2.3 mph 2.3 mph 51 % 0.0 in
23:28 9.6 °F 0.2 °F 1007.0 in ENE 2.6 mph   52 % 0.0 in
23:30 9.6 °F 0.2 °F 1007.0 in ENE 1.9 mph 2.3 mph 52 % 0.0 in
23:32 9.6 °F 0.2 °F 1007.0 in ENE 3.7 mph 3.7 mph 52 % 0.0 in
23:35 9.6 °F 0.2 °F 1007.0 in Calm     52 % 0.0 in
23:40 9.6 °F 0.2 °F 1007.0 in Calm     52 % 0.0 in
23:45 9.4 °F 0.0 °F 1007.0 in WNW 3.2 mph   52 % 0.0 in
23:47 9.4 °F 0.0 °F 1007.0 in WNW 3.7 mph 3.7 mph 52 % 0.0 in
23:52 9.2 °F -0.2 °F 1007.0 in Calm     52 % 0.0 in
23:53 9.1 °F -0.3 °F 1007.0 in Calm     52 % 0.0 in
23:54 9.1 °F -0.3 °F 1007.0 in Calm     52 % 0.0 in
23:58 8.9 °F -0.4 °F 1007.0 in ENE 3.7 mph 3.7 mph 52 % 0.0 in
Meteo Sesrovires
Elogis d' Weather Underground - 4 mb

Guio original per  Jim McMurry - jmcmurry@mwt.net Adaptat per a la plantilla per  Wim van der Kuil - Leuven-Template.eu

Trobareu la nostra informacio del temps tambe a:

Weather Underground

AWEKAS